Time;durP1;ratioP1;P1;durP2;ratioP2;P2;SDS_P1;SDS_P2;PMS_P1;PMS_P2;Temp;Humidity;BMP_temperature;BMP_pressure;BME280_temperature;BME280_humidity;BME280_pressure;Samples;Min_cycle;Max_cycle;Signal;HPM_P1;HPM_P2
2022/08/08 00:00:10;;;;;;;1.00;0.90;;;22.50;96.40;;;23.00;49.55;101897.19;4992851;28;97501;-46
2022/08/08 00:03:02;;;;;;;0.60;0.60;;;22.50;96.90;;;23.00;49.49;101897.19;5007821;28;97405;-45
2022/08/08 00:05:42;;;;;;;1.23;1.10;;;22.60;96.90;;;23.00;48.98;101897.19;4996749;28;97113;-48
2022/08/08 00:08:49;;;;;;;0.77;0.77;;;22.60;95.70;;;22.99;48.00;101892.78;4977901;28;97499;-44
2022/08/08 00:11:41;;;;;;;1.40;1.30;;;22.50;94.40;;;22.93;47.77;101887.84;5000507;28;97195;-45
2022/08/08 00:14:14;;;;;;;1.97;1.60;;;22.40;94.10;;;22.91;48.95;101889.78;4988051;28;96988;-45
2022/08/08 00:17:08;;;;;;;1.33;0.97;;;22.40;94.80;;;22.87;47.91;101891.81;4998146;27;96995;-45
2022/08/08 00:20:07;;;;;;;1.77;1.67;;;22.40;94.40;;;22.82;49.65;101889.41;5011875;28;103059;-45
2022/08/08 00:22:47;;;;;;;2.20;1.50;;;22.20;95.00;;;22.77;49.49;101886.16;4987625;28;99926;-45
2022/08/08 00:25:23;;;;;;;2.77;1.33;;;22.20;95.40;;;22.78;48.68;101889.72;4990717;28;97356;-44
2022/08/08 00:27:55;;;;;;;1.43;1.23;;;22.20;95.10;;;22.77;48.94;101886.16;5003049;28;96702;-47
2022/08/08 00:30:23;;;;;;;0.80;0.80;;;22.30;95.90;;;22.77;50.16;101886.16;5003428;28;97080;-45
2022/08/08 00:33:16;;;;;;;0.70;0.70;;;22.30;98.10;;;22.81;49.58;101890.34;4996187;28;97571;-45
2022/08/08 00:36:06;;;;;;;1.00;0.90;;;22.30;95.50;;;22.80;50.19;101887.78;4993680;28;96832;-44
2022/08/08 00:38:47;;;;;;;0.80;0.80;;;22.30;97.00;;;22.78;50.18;101890.56;4997064;28;96729;-44
2022/08/08 00:41:46;;;;;;;0.77;0.63;;;22.30;98.60;;;22.79;50.10;101892.28;5002808;28;97294;-46
2022/08/08 00:44:23;;;;;;;3.93;2.10;;;22.30;98.80;;;22.70;50.00;101887.53;5008658;28;96943;-46
2022/08/08 00:47:20;;;;;;;0.97;0.93;;;22.10;95.20;;;22.69;47.95;101884.94;5003401;28;97190;-49
2022/08/08 00:50:34;;;;;;;0.97;0.90;;;22.10;96.40;;;22.64;49.06;101893.31;5004322;28;97368;-47
2022/08/08 00:53:34;;;;;;;1.13;0.90;;;22.00;95.50;;;22.58;50.28;101891.06;4995883;28;101822;-47
2022/08/08 00:56:43;;;;;;;1.00;0.90;;;22.00;96.20;;;22.59;50.68;101883.84;5005966;28;97779;-46
2022/08/08 00:59:27;;;;;;;0.87;0.70;;;22.00;99.00;;;22.62;50.32;101886.31;5005916;28;97228;-51
2022/08/08 01:02:50;;;;;;;1.00;0.90;;;22.10;96.50;;;22.63;50.47;101875.47;5010363;28;96838;-47
2022/08/08 01:05:54;;;;;;;1.20;1.13;;;22.10;98.00;;;22.61;49.76;101874.72;4991012;28;100499;-51
2022/08/08 01:09:11;;;;;;;1.33;0.83;;;22.10;95.50;;;22.60;50.51;101882.88;4992807;28;97202;-49
2022/08/08 01:12:10;;;;;;;1.17;0.90;;;22.00;98.60;;;22.61;50.36;101885.47;4992506;28;97149;-51
2022/08/08 01:15:04;;;;;;;0.90;0.90;;;22.10;97.40;;;22.64;50.28;101879.88;4997043;28;97137;-45
2022/08/08 01:18:10;;;;;;;1.23;0.80;;;22.10;97.10;;;22.68;50.78;101873.31;5003719;28;101830;-49
2022/08/08 01:21:30;;;;;;;1.00;0.90;;;22.20;99.90;;;22.67;49.31;101876.13;5000506;28;99946;-47
2022/08/08 01:24:02;;;;;;;1.37;1.27;;;22.20;95.40;;;22.58;49.97;101888.38;4966562;28;97473;-45
2022/08/08 01:27:24;;;;;;;2.67;1.37;;;22.00;95.90;;;22.57;50.91;101886.66;5003455;28;97239;-49
2022/08/08 01:30:08;;;;;;;3.57;2.30;;;21.90;98.10;;;22.52;50.71;101886.94;4986928;28;103338;-51
2022/08/08 01:33:30;;;;;;;0.90;0.90;;;21.90;98.20;;;22.60;50.79;101893.63;4992679;28;101654;-47
2022/08/08 01:36:35;;;;;;;1.37;1.23;;;22.00;99.90;;;22.59;50.35;101890.09;5005853;28;99395;-52
2022/08/08 01:39:27;;;;;;;1.37;1.20;;;22.10;97.10;;;22.58;50.80;101896.44;4996406;28;98747;-44
2022/08/08 01:42:18;;;;;;;0.90;0.90;;;22.00;98.30;;;22.63;50.80;101891.59;4993459;28;97391;-45
2022/08/08 01:45:40;;;;;;;0.93;0.90;;;22.10;98.50;;;22.64;50.94;101892.47;4981014;28;99822;-51
2022/08/08 01:48:58;;;;;;;1.03;0.93;;;22.10;98.10;;;22.67;50.98;101886.88;4993560;28;97580;-50
2022/08/08 01:51:46;;;;;;;2.83;2.33;;;22.20;99.90;;;22.64;49.89;101879.88;4997721;28;98881;-45
2022/08/08 01:54:52;;;;;;;1.80;1.20;;;22.20;95.40;;;22.64;50.01;101884.41;5006046;28;97538;-48
2022/08/08 01:57:48;;;;;;;1.47;1.27;;;22.10;96.20;;;22.63;50.59;101875.47;5002738;28;97269;-48
2022/08/08 02:00:26;;;;;;;1.73;1.23;;;22.10;98.20;;;22.66;50.44;101887.84;4999881;28;97674;-44
2022/08/08 02:03:07;;;;;;;1.60;1.03;;;22.10;97.40;;;22.67;50.36;101881.50;4973672;28;97197;-44
2022/08/08 02:05:46;;;;;;;0.90;0.80;;;22.20;97.90;;;22.65;51.05;101886.13;5004045;28;100308;-45
2022/08/08 02:08:51;;;;;;;1.10;1.00;;;22.10;99.80;;;22.68;50.38;101888.59;4994357;28;97277;-47
2022/08/08 02:11:45;;;;;;;1.03;0.93;;;22.20;97.40;;;22.68;50.34;101884.06;4938936;28;97305;-43
2022/08/08 02:14:35;;;;;;;1.10;0.87;;;22.20;97.30;;;22.68;50.37;101884.06;4974170;28;97397;-45
2022/08/08 02:17:28;;;;;;;0.90;0.90;;;22.20;98.50;;;22.69;50.39;101885.78;4993117;28;97944;-51
2022/08/08 02:20:18;;;;;;;1.33;1.20;;;22.20;99.60;;;22.69;50.86;101890.31;4989198;28;97432;-54
2022/08/08 02:23:01;;;;;;;1.13;1.00;;;22.10;99.70;;;22.67;50.62;101894.94;4990166;28;97334;-50
2022/08/08 02:25:41;;;;;;;1.10;1.00;;;22.10;98.60;;;22.64;51.04;101890.63;4976014;28;96969;-47
2022/08/08 02:28:35;;;;;;;1.20;1.10;;;22.10;99.90;;;22.64;49.89;101898.69;4976525;28;97043;-47
2022/08/08 02:31:28;;;;;;;2.30;1.77;;;22.10;98.20;;;22.61;48.86;101888.16;4997654;28;97219;-43
2022/08/08 02:34:25;;;;;;;2.17;1.47;;;22.10;95.90;;;22.58;50.62;101899.13;4985723;28;97275;-52
2022/08/08 02:36:59;;;;;;;1.20;1.10;;;22.00;97.10;;;22.56;51.01;101895.66;4994154;28;97219;-49
2022/08/08 02:39:53;;;;;;;1.57;1.30;;;21.90;99.00;;;22.55;50.62;101888.53;4993472;28;101855;-55
2022/08/08 02:42:38;;;;;;;1.53;1.10;;;22.00;98.00;;;22.53;51.07;101885.97;4968810;28;97122;-50
2022/08/08 02:45:25;;;;;;;1.73;1.33;;;22.00;99.00;;;22.55;50.89;101893.94;4999267;28;97269;-50
2022/08/08 02:48:24;;;;;;;1.40;1.30;;;22.00;98.80;;;22.53;51.25;101894.03;5011664;28;97272;-49
2022/08/08 02:51:35;;;;;;;1.10;1.00;;;21.90;99.90;;;22.52;51.26;101894.13;4996079;28;101746;-49
2022/08/08 02:54:52;;;;;;;1.27;1.17;;;22.00;99.80;;;22.52;50.99;101896.81;4987462;28;102746;-49
2022/08/08 02:57:30;;;;;;;1.30;1.20;;;22.00;99.90;;;22.50;51.05;101896.94;4990574;28;97194;-52
2022/08/08 03:00:23;;;;;;;1.43;1.10;;;22.00;99.30;;;22.54;51.28;101892.19;4997435;28;97212;-45
2022/08/08 03:03:25;;;;;;;1.30;1.20;;;22.10;99.90;;;22.58;50.36;101892.88;4999141;28;101647;-51
2022/08/08 03:06:21;;;;;;;1.20;1.10;;;22.10;98.10;;;22.58;51.15;101893.75;5013127;28;102249;-50
2022/08/08 03:09:36;;;;;;;2.03;1.50;;;22.10;99.80;;;22.61;51.06;101888.16;4984732;28;97143;-49
2022/08/08 03:12:27;;;;;;;1.30;1.20;;;22.20;99.90;;;22.62;50.14;101894.41;4995556;28;97611;-51
2022/08/08 03:15:27;;;;;;;3.17;1.40;;;22.20;97.90;;;22.60;49.76;101899.88;4997469;28;98286;-48
2022/08/08 03:18:25;;;;;;;1.50;1.30;;;22.10;96.50;;;22.59;50.94;101900.84;4997909;28;101809;-48
2022/08/08 03:20:52;;;;;;;1.27;1.17;;;22.10;98.80;;;22.59;51.12;101895.47;4997322;28;97089;-45
2022/08/08 03:23:21;;;;;;;1.43;1.33;;;22.10;99.90;;;22.58;50.95;101899.13;4995564;28;97612;-49
2022/08/08 03:25:49;;;;;;;1.60;1.30;;;22.10;99.10;;;22.60;nan;101899.88;5007159;28;97572;-46
2022/08/08 03:28:32;;;;;;;1.23;1.13;;;22.10;99.90;;;22.61;50.90;101904.28;4988751;28;97137;-47
2022/08/08 03:30:57;;;;;;;1.40;1.30;;;22.10;99.70;;;22.60;50.95;101902.56;4990034;28;96924;-49
2022/08/08 03:33:24;;;;;;;3.87;2.13;;;22.10;99.40;;;22.60;49.72;101899.88;5004790;28;97582;-48
2022/08/08 03:35:51;;;;;;;1.27;1.10;;;22.10;96.50;;;22.57;51.08;101902.78;5004941;28;97227;-47
2022/08/08 03:38:21;;;;;;;1.43;1.30;;;22.00;99.90;;;22.58;51.39;101906.31;5007290;28;97758;-48
2022/08/08 03:40:52;;;;;;;2.37;1.73;;;22.10;99.90;;;22.60;51.21;101912.47;5015026;28;97080;-46
2022/08/08 03:43:18;;;;;;;1.40;1.30;;;22.10;99.90;;;22.56;50.83;101907.25;5004760;28;104228;-50
2022/08/08 03:45:45;;;;;;;1.57;1.47;;;22.00;99.00;;;22.55;50.25;101915.44;4986246;28;97048;-49
2022/08/08 03:48:11;;;;;;;1.30;1.00;;;22.00;96.70;;;22.52;50.67;101904.88;4999098;28;98239;-53
2022/08/08 03:50:48;;;;;;;2.33;1.40;;;22.00;97.80;;;22.49;50.94;101915.84;5002769;28;97051;-49
2022/08/08 03:53:17;;;;;;;1.50;1.40;;;21.90;99.90;;;22.44;51.78;101918.84;4998067;27;97376;-50
2022/08/08 03:55:48;;;;;;;1.50;1.30;;;21.80;99.90;;;22.45;51.50;101914.34;4993178;28;97533;-51
2022/08/08 03:58:24;;;;;;;1.80;1.40;;;21.90;99.90;;;22.43;50.92;101916.28;4975774;28;98443;-53
2022/08/08 04:00:56;;;;;;;1.53;1.30;;;21.90;97.70;;;22.44;51.09;101923.38;4981735;28;97361;-54
2022/08/08 04:03:23;;;;;;;1.20;1.10;;;21.90;98.50;;;22.42;51.04;101928.84;5003814;28;97782;-49
2022/08/08 04:05:49;;;;;;;2.20;1.83;;;21.90;98.90;;;22.42;50.69;101927.97;4979335;28;100006;-49
2022/08/08 04:08:23;;;;;;;1.63;1.37;;;21.90;97.60;;;22.42;51.36;101930.66;5005854;28;97459;-50
2022/08/08 04:10:51;;;;;;;1.43;1.33;;;21.80;99.70;;;22.40;51.45;101929.88;4985921;28;99987;-55
2022/08/08 04:13:21;;;;;;;1.70;1.43;;;21.80;99.80;;;22.39;51.49;101930.84;4996621;28;97005;-50
2022/08/08 04:15:47;;;;;;;1.90;1.70;;;21.80;99.60;;;22.37;51.31;101932.78;4997361;28;97502;-52
2022/08/08 04:18:14;;;;;;;1.87;1.30;;;21.80;98.70;;;22.35;51.59;101932.03;4999397;28;97589;-48
2022/08/08 04:20:40;;;;;;;1.50;1.40;;;21.80;99.40;;;22.33;51.33;101925.88;4997849;28;105893;-50
2022/08/08 04:23:07;;;;;;;1.63;1.53;;;21.80;98.70;;;22.33;51.52;101931.25;5002269;28;97065;-44
2022/08/08 04:25:33;;;;;;;2.40;1.50;;;21.70;99.60;;;22.32;51.60;101937.59;5008049;28;97727;-56
2022/08/08 04:27:59;;;;;;;3.60;2.80;;;21.70;99.90;;;22.26;50.25;101928.97;4994907;28;97270;-51
2022/08/08 04:30:25;;;;;;;1.87;1.70;;;21.60;96.60;;;22.25;51.83;101935.28;4996113;28;97057;-47
2022/08/08 04:32:51;;;;;;;3.33;2.87;;;21.60;99.70;;;22.21;49.67;101935.59;5008924;28;96894;-48
2022/08/08 04:35:18;;;;;;;1.90;1.43;;;21.50;96.60;;;22.14;51.86;101936.97;4984169;28;98275;-43
2022/08/08 04:37:44;;;;;;;2.30;2.10;;;21.40;98.50;;;22.07;51.62;101949.91;5014745;28;103489;-44
2022/08/08 04:40:10;;;;;;;1.60;1.50;;;21.30;97.50;;;22.01;52.25;101939.53;5012508;28;96786;-46
2022/08/08 04:42:37;;;;;;;1.60;1.50;;;21.20;99.10;;;21.98;52.21;101948.63;5007744;28;97340;-45
2022/08/08 04:45:04;;;;;;;3.10;2.27;;;21.20;99.00;;;21.97;52.43;101948.72;5011304;28;97253;-44
2022/08/08 04:47:31;;;;;;;1.60;1.50;;;21.10;99.40;;;21.94;52.15;101957.00;5013442;28;97474;-44
2022/08/08 04:49:56;;;;;;;1.57;1.47;;;21.20;98.40;;;21.93;52.67;101950.75;5000955;28;97457;-46
2022/08/08 04:52:22;;;;;;;1.50;1.40;;;21.20;99.90;;;21.94;52.69;101957.84;4993767;28;97515;-43
2022/08/08 04:54:48;;;;;;;1.53;1.43;;;21.20;99.80;;;21.98;52.52;101963.88;4996749;28;104502;-44
2022/08/08 04:57:14;;;;;;;1.73;1.63;;;21.30;99.90;;;22.03;52.70;101955.56;5000551;28;97511;-45
2022/08/08 04:59:40;;;;;;;1.90;1.70;;;21.40;99.90;;;22.05;52.22;101949.16;4987130;28;99923;-42
2022/08/08 05:02:06;;;;;;;1.70;1.33;;;21.40;99.40;;;22.07;52.26;101959.81;4996220;28;96700;-43
2022/08/08 05:04:32;;;;;;;2.17;1.93;;;21.40;99.20;;;22.04;51.65;101960.84;5002734;28;97197;-45
2022/08/08 05:06:58;;;;;;;1.60;1.50;;;21.30;98.00;;;22.03;52.21;101961.78;4987514;28;97123;-46
2022/08/08 05:09:24;;;;;;;1.90;1.80;;;21.30;98.70;;;22.02;52.36;101960.06;5011215;28;97171;-46
2022/08/08 05:11:50;;;;;;;3.13;2.30;;;21.30;99.90;;;22.04;51.95;101965.34;4996958;28;97569;-47
2022/08/08 05:14:16;;;;;;;2.43;2.03;;;21.30;98.60;;;22.02;52.62;101969.97;5009279;28;97247;-47
2022/08/08 05:16:42;;;;;;;2.70;2.47;;;21.30;99.90;;;22.06;52.03;101967.00;4999810;28;97411;-43
2022/08/08 05:19:11;;;;;;;3.77;2.70;;;21.40;98.80;;;22.06;52.12;101967.00;5003614;28;98051;-46
2022/08/08 05:21:42;;;;;;;4.13;3.53;;;21.30;99.30;;;22.04;51.98;101966.22;5002771;28;97371;-49
2022/08/08 05:24:09;;;;;;;2.27;2.03;;;21.30;98.70;;;22.06;51.72;101966.16;5007344;28;97862;-43
2022/08/08 05:26:37;;;;;;;5.67;2.90;;;21.40;98.50;;;22.07;50.85;101957.97;5016036;28;97183;-44
2022/08/08 05:29:07;;;;;;;6.10;3.67;;;21.40;97.90;;;22.05;50.38;101959.91;5012652;28;97005;-44
2022/08/08 05:31:34;;;;;;;5.63;4.53;;;21.30;97.40;;;21.93;49.22;101956.13;5007501;28;96941;-43
2022/08/08 05:34:05;;;;;;;5.43;4.30;;;21.20;97.50;;;21.84;49.06;101959.38;4977900;28;97368;-46
2022/08/08 05:36:34;;;;;;;8.50;3.93;;;21.00;97.90;;;21.76;50.01;101963.53;5002429;28;98386;-47
2022/08/08 05:39:04;;;;;;;7.07;4.53;;;20.90;98.30;;;21.68;50.21;101967.53;4986728;28;97248;-43
2022/08/08 05:41:35;;;;;;;7.33;3.77;;;20.80;98.50;;;21.62;50.63;101965.22;5013898;28;97051;-46
2022/08/08 05:44:12;;;;;;;6.67;4.73;;;20.80;98.70;;;21.58;50.88;101970.91;5008537;28;98026;-43
2022/08/08 05:46:40;;;;;;;7.33;4.80;;;20.70;98.90;;;21.49;49.41;101966.94;5007138;28;96693;-43
2022/08/08 05:49:07;;;;;;;7.00;4.63;;;20.70;98.90;;;21.41;49.96;101971.94;4993146;28;96788;-45
2022/08/08 05:51:33;;;;;;;9.03;4.90;;;20.60;99.10;;;21.31;47.94;101976.13;4994285;28;97166;-44
2022/08/08 05:54:00;;;;;;;7.07;5.20;;;20.50;98.90;;;21.23;48.99;101981.03;4973988;28;105725;-54
2022/08/08 05:56:27;;;;;;;6.13;4.70;;;20.40;99.40;;;21.20;51.21;101987.44;5000089;28;102497;-49
2022/08/08 05:59:04;;;;;;;10.20;4.67;;;20.40;99.50;;;21.24;51.54;101982.75;4986875;28;97109;-44
2022/08/08 06:01:31;;;;;;;7.97;5.30;;;20.40;99.80;;;21.23;53.15;101986.41;5000046;28;97624;-42
2022/08/08 06:04:02;;;;;;;10.77;4.97;;;20.50;99.90;;;21.17;49.90;101979.59;5001254;28;97814;-42
2022/08/08 06:06:30;;;;;;;6.10;3.23;;;20.40;99.60;;;21.25;52.97;101977.31;4990936;28;100566;-44
2022/08/08 06:09:01;;;;;;;6.67;5.00;;;20.50;99.90;;;21.21;50.54;101982.94;4998037;28;97355;-45
2022/08/08 06:11:31;;;;;;;1.90;1.80;;;20.50;99.50;;;21.33;54.06;101983.13;4999467;28;97423;-46
2022/08/08 06:14:04;;;;;;;2.47;2.00;;;20.60;99.90;;;21.48;53.93;101977.78;5002358;28;98723;-46
2022/08/08 06:16:35;;;;;;;2.30;2.10;;;20.90;99.90;;;21.61;53.41;101982.31;5003275;28;99943;-45
2022/08/08 06:19:01;;;;;;;3.23;2.10;;;21.00;99.90;;;21.73;53.01;101983.38;5001342;28;96987;-46
2022/08/08 06:21:28;;;;;;;2.10;1.93;;;21.30;99.90;;;21.88;52.85;101984.25;5012092;28;97353;-47
2022/08/08 06:23:54;;;;;;;5.17;3.50;;;21.40;99.90;;;22.00;51.68;101983.50;5006450;28;97212;-45
2022/08/08 06:26:24;;;;;;;5.57;4.30;;;21.60;99.20;;;22.00;48.07;101988.88;5002633;28;97512;-47
2022/08/08 06:29:10;;;;;;;6.77;4.50;;;21.50;97.40;;;21.93;48.74;101993.75;4983717;28;97458;-44
2022/08/08 06:31:38;;;;;;;7.17;4.40;;;21.40;97.60;;;21.92;46.46;101999.22;5003298;28;97538;-44
2022/08/08 06:34:18;;;;;;;5.43;3.83;;;21.30;97.60;;;21.95;51.96;101999.88;5001905;28;98058;-45
2022/08/08 06:36:45;;;;;;;5.47;4.57;;;21.40;99.90;;;21.97;47.51;102000.63;5004531;28;101881;-47
2022/08/08 06:39:13;;;;;;;7.17;4.03;;;21.40;97.90;;;21.95;49.78;101996.31;4975581;28;97321;-46
2022/08/08 06:41:54;;;;;;;4.73;4.07;;;21.40;97.80;;;22.04;50.27;101994.91;5008576;28;99470;-46
2022/08/08 06:44:23;;;;;;;5.43;4.70;;;21.50;98.90;;;22.08;48.19;102001.84;5007939;28;97585;-45
2022/08/08 06:46:49;;;;;;;7.03;4.43;;;21.60;98.40;;;22.01;46.19;102004.03;5004227;28;102591;-46
2022/08/08 06:49:17;;;;;;;5.57;4.50;;;21.50;97.70;;;21.99;48.30;102000.56;5008192;28;97076;-46
2022/08/08 06:51:43;;;;;;;5.73;4.57;;;21.40;97.80;;;21.99;48.18;102000.56;5009368;28;99878;-43
2022/08/08 06:54:11;;;;;;;8.47;4.93;;;21.40;97.90;;;21.89;46.68;101999.41;5003572;28;113104;-43
2022/08/08 06:56:38;;;;;;;2.73;2.00;;;21.30;98.00;;;22.08;52.13;102002.69;5009113;28;97525;-43
2022/08/08 06:59:05;;;;;;;9.77;4.57;;;21.60;99.90;;;22.11;46.22;102001.63;5001606;28;97169;-42
2022/08/08 07:01:53;;;;;;;4.63;3.40;;;21.70;97.50;;;22.13;50.85;102005.97;5010841;28;97108;-45
2022/08/08 07:04:24;;;;;;;2.73;1.97;;;21.60;98.90;;;22.13;51.00;102007.78;5012276;28;99448;-43
2022/08/08 07:06:59;;;;;;;9.30;4.80;;;21.60;99.50;;;22.20;46.90;102007.31;4982853;28;96981;-43
2022/08/08 07:09:37;;;;;;;6.13;4.23;;;21.80;97.30;;;22.18;46.32;102003.84;5001398;28;97094;-42
2022/08/08 07:12:07;;;;;;;6.03;4.43;;;21.70;97.20;;;22.15;45.67;102013.94;4994499;28;96861;-43
2022/08/08 07:14:55;;;;;;;7.03;4.63;;;21.60;97.20;;;22.12;45.00;102012.28;4999814;28;97240;-43
2022/08/08 07:17:24;;;;;;;2.37;2.00;;;21.70;96.90;;;22.12;51.17;102020.34;4977345;28;97920;-44
2022/08/08 07:20:06;;;;;;;2.47;1.90;;;21.60;99.90;;;22.24;51.34;102019.56;5001102;28;97375;-44
2022/08/08 07:23:01;;;;;;;6.07;4.10;;;21.80;99.90;;;22.26;45.08;102028.41;5007554;28;96888;-43
2022/08/08 07:25:30;;;;;;;4.80;3.77;;;21.90;96.60;;;22.24;46.29;102030.31;4982757;28;101536;-45
2022/08/08 07:28:14;;;;;;;3.57;3.07;;;21.80;97.10;;;22.31;49.63;102035.34;4999695;27;97404;-42
2022/08/08 07:30:42;;;;;;;5.70;4.20;;;21.90;97.80;;;22.31;46.38;102035.34;5005284;28;97244;-46
2022/08/08 07:33:10;;;;;;;5.47;3.80;;;21.90;96.90;;;22.32;50.49;102032.53;5001083;28;97120;-47
2022/08/08 07:35:37;;;;;;;5.23;3.73;;;21.90;99.90;;;22.43;49.19;102034.56;5008583;28;97502;-46
2022/08/08 07:38:04;;;;;;;6.43;3.83;;;22.10;98.30;;;22.47;45.82;102036.09;5002215;28;97122;-45
2022/08/08 07:40:31;;;;;;;8.40;3.87;;;22.20;97.60;;;22.49;46.87;102034.16;4988567;28;97201;-48
2022/08/08 07:42:58;;;;;;;4.83;4.13;;;22.20;96.30;;;22.56;49.34;102038.16;5000354;28;97273;-44
2022/08/08 07:45:24;;;;;;;5.10;3.50;;;22.20;98.00;;;22.60;44.57;102037.03;4981694;28;97987;-45
2022/08/08 07:47:51;;;;;;;5.73;3.40;;;22.30;96.20;;;22.65;45.12;102040.28;4995897;28;97382;-45
2022/08/08 07:50:17;;;;;;;6.07;3.50;;;22.40;96.80;;;22.69;48.03;102036.41;4999553;28;97312;-47
2022/08/08 07:52:49;;;;;;;4.57;3.80;;;22.40;97.20;;;22.74;44.77;102044.19;5005299;28;97068;-43
2022/08/08 07:55:23;;;;;;;5.40;2.97;;;22.50;95.90;;;22.77;49.22;102044.84;4996667;28;97346;-44
2022/08/08 07:58:20;;;;;;;5.53;2.37;;;22.40;98.70;;;22.83;49.38;102047.16;4999778;28;98237;-45
2022/08/08 08:00:58;;;;;;;3.13;2.10;;;22.50;99.30;;;22.89;48.80;102042.38;4984203;28;97270;-46
2022/08/08 08:04:02;;;;;;;5.17;3.50;;;22.60;98.70;;;22.91;46.21;102045.81;4976178;28;97548;-43
2022/08/08 08:06:31;;;;;;;4.97;2.97;;;22.60;96.40;;;22.92;48.19;102047.53;4956340;28;100571;-45
2022/08/08 08:09:12;;;;;;;4.67;3.73;;;22.60;98.40;;;22.97;48.43;102040.88;4990497;28;97289;-46
2022/08/08 08:11:44;;;;;;;8.33;3.57;;;22.70;97.70;;;22.98;44.47;102041.75;4995052;28;97515;-45
2022/08/08 08:14:18;;;;;;;6.50;3.40;;;22.70;95.70;;;23.02;45.21;102037.91;4980112;28;97202;-45
2022/08/08 08:16:46;;;;;;;5.90;3.30;;;22.80;97.10;;;23.06;44.17;102040.28;4987687;28;97527;-47
2022/08/08 08:19:14;;;;;;;8.07;3.40;;;22.90;95.70;;;23.10;45.61;102035.56;4985280;28;96913;-45
2022/08/08 08:21:45;;;;;;;6.20;3.57;;;22.80;96.30;;;23.15;47.41;102044.19;4997691;28;97533;-45
2022/08/08 08:24:12;;;;;;;6.23;3.40;;;22.90;97.70;;;23.15;45.10;102038.81;4995821;28;97118;-44
2022/08/08 08:26:39;;;;;;;5.33;3.23;;;23.00;96.00;;;23.17;46.13;102041.41;5005170;28;97837;-45
2022/08/08 08:29:05;;;;;;;8.63;3.30;;;23.00;96.50;;;23.21;43.55;102038.41;4994755;28;98739;-44
2022/08/08 08:31:31;;;;;;;2.63;2.43;;;23.00;94.50;;;23.23;46.76;102047.22;5009294;28;97142;-47
2022/08/08 08:33:57;;;;;;;6.67;3.50;;;23.10;97.20;;;23.27;46.85;102035.28;5013850;28;97037;-46
2022/08/08 08:36:24;;;;;;;4.53;2.70;;;23.10;96.90;;;23.27;47.28;102040.66;4986924;28;98596;-44
2022/08/08 08:38:50;;;;;;;7.23;3.30;;;23.10;97.70;;;23.32;43.08;102041.22;5010504;28;96672;-44
2022/08/08 08:41:18;;;;;;;5.10;3.17;;;23.20;94.70;;;23.39;42.80;102042.53;5001041;28;97498;-45
2022/08/08 08:43:47;;;;;;;5.90;3.10;;;23.20;94.20;;;23.41;43.23;102027.13;5003299;28;97470;-45
2022/08/08 08:46:13;;;;;;;2.67;2.00;;;23.30;94.60;;;23.44;47.14;102040.41;4974223;28;97178;-43
2022/08/08 08:48:43;;;;;;;2.27;2.03;;;23.30;97.50;;;23.40;47.66;102035.31;5003289;28;97338;-45
2022/08/08 08:51:14;;;;;;;7.33;3.03;;;23.30;97.90;;;23.39;42.95;102037.16;4993099;28;97375;-47
2022/08/08 08:53:50;;;;;;;4.53;3.10;;;23.30;94.00;;;23.45;41.12;102031.34;5007098;28;99591;-44
2022/08/08 08:56:19;;;;;;;2.77;2.50;;;23.40;93.00;;;23.49;40.54;102025.75;5001996;28;97649;-46
2022/08/08 08:58:47;;;;;;;4.03;2.13;;;23.40;92.40;;;23.53;38.40;102028.13;4999587;28;102039;-47
2022/08/08 09:01:19;;;;;;;3.70;2.60;;;23.40;90.70;;;23.58;42.46;102030.53;4990900;28;97694;-44
2022/08/08 09:03:48;;;;;;;2.43;2.20;;;23.50;92.30;;;23.61;38.56;102030.34;4984794;28;97368;-46
2022/08/08 09:06:31;;;;;;;2.40;2.20;;;23.50;90.60;;;23.64;45.64;102024.72;4992215;28;98629;-46
2022/08/08 09:09:16;;;;;;;2.30;2.10;;;23.50;96.30;;;23.58;46.53;102019.75;5004142;28;96669;-44
2022/08/08 09:11:45;;;;;;;2.17;1.98;;;23.50;96.70;;;23.49;46.74;102025.75;4986905;28;96955;-44
2022/08/08 09:14:11;;;;;;;2.30;1.83;;;23.50;96.90;;;23.35;47.26;102024.88;4983304;28;97259;-45
2022/08/08 09:16:38;;;;;;;2.13;1.90;;;23.40;97.20;;;23.34;47.56;102027.66;5000579;28;100110;-44
2022/08/08 09:19:04;;;;;;;2.30;2.10;;;23.40;97.50;;;23.29;48.16;102030.69;4999923;28;97996;-46
2022/08/08 09:21:31;;;;;;;2.27;2.07;;;23.30;97.80;;;23.29;47.96;102035.16;5001273;28;97366;-46
2022/08/08 09:23:57;;;;;;;2.50;2.30;;;23.30;97.80;;;23.15;48.49;102034.28;5011956;28;97758;-44
2022/08/08 09:26:46;;;;;;;2.50;2.30;;;23.20;98.00;;;23.32;48.01;102033.16;4991486;28;97773;-44
2022/08/08 09:29:23;;;;;;;2.80;1.80;;;23.30;98.10;;;23.41;43.16;102027.13;4991304;28;97080;-46
2022/08/08 09:32:05;;;;;;;2.17;1.50;;;23.40;94.40;;;23.57;36.56;102023.38;5007867;28;97303;-44
2022/08/08 09:34:37;;;;;;;1.93;1.80;;;23.50;87.60;;;23.57;45.78;102018.00;4997703;28;96990;-47
2022/08/08 09:37:08;;;;;;;2.47;1.70;;;23.50;96.00;;;23.58;46.33;102019.75;4981006;28;97747;-44
2022/08/08 09:40:05;;;;;;;2.30;2.10;;;23.50;96.50;;;23.52;47.43;102014.78;5000271;28;97673;-44
2022/08/08 09:42:49;;;;;;;2.40;2.07;;;23.50;97.40;;;23.36;48.25;102026.59;4993054;28;97486;-47
2022/08/08 09:45:47;;;;;;;4.50;1.90;;;23.40;97.70;;;23.59;36.56;102021.50;5008146;28;97121;-45
2022/08/08 09:48:16;;;;;;;2.03;1.83;;;23.50;88.30;;;23.60;44.18;102020.53;4981217;28;98432;-45
2022/08/08 09:50:45;;;;;;;2.20;1.85;;;23.60;94.70;;;23.61;45.05;102016.88;4999495;28;97738;-46
2022/08/08 09:53:17;;;;;;;2.27;2.00;;;23.60;95.70;;;23.51;47.14;102023.81;4993476;28;97388;-46
2022/08/08 09:55:45;;;;;;;2.20;1.93;;;23.50;97.10;;;23.56;46.67;102010.88;5013701;28;96857;-46
2022/08/08 09:58:17;;;;;;;3.83;1.90;;;23.50;96.50;;;23.72;36.50;102016.97;5004536;28;99456;-45
2022/08/08 10:00:47;;;;;;;3.30;1.98;;;23.70;87.10;;;23.78;45.46;102016.56;5009268;28;97414;-46
2022/08/08 10:03:17;;;;;;;2.30;1.55;;;23.80;95.20;;;23.78;46.07;102003.09;4985111;28;97376;-46
2022/08/08 10:05:46;;;;;;;2.58;2.00;;;23.80;96.10;;;23.85;37.10;102017.84;5004738;28;97389;-48
2022/08/08 10:08:11;;;;;;;1.85;1.50;;;23.80;89.10;;;23.81;40.10;102016.34;4986253;28;97365;-44
2022/08/08 10:10:42;;;;;;;2.15;1.63;;;23.80;91.90;;;23.72;44.98;102016.97;5005921;28;99221;-44
2022/08/08 10:13:31;;;;;;;1.70;1.60;;;23.80;95.00;;;23.82;45.21;102012.66;5005040;28;97239;-44
2022/08/08 10:16:00;;;;;;;3.92;3.58;;;23.80;95.80;;;23.94;43.12;102001.03;4981908;28;99120;-47
2022/08/08 10:18:33;;;;;;;2.40;1.98;;;23.90;93.80;;;23.92;45.52;102008.38;4985883;28;100539;-44
2022/08/08 10:21:08;;;;;;;2.20;2.00;;;23.90;95.70;;;23.94;45.54;102009.13;5005432;28;97403;-56
2022/08/08 10:23:34;;;;;;;1.80;1.70;;;23.90;95.50;;;23.76;45.80;102007.72;5003082;28;97487;-46
2022/08/08 10:26:04;;;;;;;2.10;1.87;;;23.80;95.70;;;23.76;46.33;102010.41;5011978;28;97496;-47
2022/08/08 10:28:36;;;;;;;1.70;1.60;;;23.80;96.20;;;23.56;47.02;102005.50;4997729;28;96643;-44
2022/08/08 10:33:55;;;;;;;1.60;1.40;;;23.60;92.20;;;23.70;46.54;102003.59;4963145;28;97315;-46
2022/08/08 10:36:26;;;;;;;2.17;1.80;;;23.70;96.60;;;23.89;37.28;102003.19;4994450;28;101197;-44
2022/08/08 10:38:57;;;;;;;2.72;1.60;;;23.80;90.00;;;24.01;44.92;102002.34;4987507;28;96731;-45
2022/08/08 10:41:27;;;;;;;2.28;1.73;;;24.00;94.80;;;24.16;38.50;102007.56;4989216;28;100534;-45
2022/08/08 10:43:53;;;;;;;3.03;1.98;;;24.10;90.10;;;24.30;35.37;101992.19;4983703;28;96711;-44
2022/08/08 10:46:26;;;;;;;3.67;1.85;;;24.30;85.00;;;24.25;43.70;101997.00;5005689;28;97789;-48
2022/08/08 10:48:54;;;;;;;3.47;1.80;;;24.30;93.10;;;24.18;40.89;102000.25;5006632;28;97938;-44
2022/08/08 10:51:26;;;;;;;1.48;1.30;;;24.30;92.80;;;24.29;42.35;102001.22;4998081;28;97689;-44
2022/08/08 10:53:54;;;;;;;1.67;1.42;;;24.30;90.00;;;24.29;44.72;101997.63;5017720;28;97180;-46
2022/08/08 10:56:21;;;;;;;2.63;2.00;;;24.30;94.40;;;24.23;43.08;102006.19;5004013;28;103118;-47